Time;durP1;ratioP1;P1;durP2;ratioP2;P2;SDS_P1;SDS_P2;PMS_P1;PMS_P2;Temp;Humidity;BMP_temperature;BMP_pressure;BME280_temperature;BME280_humidity;BME280_pressure;Samples;Min_cycle;Max_cycle;Signal;HPM_P1;HPM_P2
2022/08/07 00:01:22;;;;;;;6.53;6.03;;;;;;;27.38;40.64;94816.41;6185979;28;103980;-72
2022/08/07 00:04:45;;;;;;;6.60;6.10;;;;;;;27.62;39.80;94823.56;6186852;28;103793;-72
2022/08/07 00:07:49;;;;;;;6.83;6.33;;;;;;;27.69;39.82;94826.41;6182650;28;104170;-71
2022/08/07 00:11:02;;;;;;;7.50;6.90;;;;;;;27.66;39.64;94832.47;6185034;28;104716;-71
2022/08/07 00:14:08;;;;;;;6.90;6.40;;;;;;;27.48;40.39;94831.25;6181386;28;103990;-72
2022/08/07 00:17:14;;;;;;;7.43;6.83;;;;;;;27.31;40.87;94827.00;6186130;28;103874;-72
2022/08/07 00:20:18;;;;;;;6.40;5.93;;;;;;;27.23;40.58;94825.22;6176897;28;103902;-72
2022/08/07 00:23:40;;;;;;;6.90;6.40;;;;;;;27.08;41.15;94827.53;6185834;28;103745;-71
2022/08/07 00:26:43;;;;;;;6.40;5.93;;;;;;;27.00;41.52;94811.56;6169657;28;103980;-72
2022/08/07 00:30:07;;;;;;;7.27;6.67;;;;;;;27.01;41.44;94819.25;6166491;28;103780;-69
2022/08/07 00:33:29;;;;;;;6.80;6.23;;;;;;;26.98;41.83;94825.31;6181144;28;103660;-71
2022/08/07 00:36:34;;;;;;;7.00;6.50;;;;;;;26.91;41.21;94827.03;6185341;28;103930;-70
2022/08/07 00:39:41;;;;;;;6.97;6.43;;;;;;;26.67;41.65;94836.72;6185546;28;103936;-73
2022/08/07 00:42:47;;;;;;;6.53;6.13;;;;;;;26.95;41.06;94841.34;6176359;28;103905;-72
2022/08/07 00:45:54;;;;;;;7.00;6.50;;;;;;;27.07;40.73;94828.66;6185358;28;103783;-70
2022/08/07 00:49:01;;;;;;;7.27;6.87;;;;;;;27.30;40.62;94826.22;6179314;28;103672;-71
2022/08/07 00:52:06;;;;;;;6.97;6.47;;;;;;;27.46;40.24;94824.31;6169003;28;103433;-71
2022/08/07 00:55:13;;;;;;;6.73;6.27;;;;;;;27.50;40.92;94824.41;6172373;28;103398;-71
2022/08/07 00:58:27;;;;;;;6.90;6.33;;;;;;;27.43;40.86;94829.63;6177571;28;103791;-73
2022/08/07 01:01:30;;;;;;;6.87;6.27;;;;;;;27.16;41.14;94836.53;6185744;28;103479;-71
2022/08/07 01:04:46;;;;;;;7.00;6.50;;;;;;;27.05;41.50;94835.47;6178271;28;103881;-71
2022/08/07 01:07:50;;;;;;;6.90;6.40;;;;;;;26.91;41.34;94830.50;6183694;28;105260;-70
2022/08/07 01:10:55;;;;;;;7.30;6.80;;;;;;;26.86;41.40;94828.84;6185290;28;103810;-72
2022/08/07 01:14:02;;;;;;;6.83;6.33;;;;;;;26.65;42.13;94830.13;6185194;28;103646;-72
2022/08/07 01:17:06;;;;;;;7.10;6.60;;;;;;;26.33;42.81;94839.91;6175239;28;104135;-77
2022/08/07 01:20:12;;;;;;;6.87;6.20;;;;;;;26.49;42.56;94835.41;6184926;28;103686;-71
2022/08/07 01:23:20;;;;;;;6.83;6.33;;;;;;;26.42;42.83;94835.22;6160474;28;104294;-72
2022/08/07 01:26:39;;;;;;;6.90;6.50;;;;;;;26.55;42.24;94831.38;6160903;28;103767;-72
2022/08/07 01:29:43;;;;;;;7.37;6.73;;;;;;;26.62;42.25;94842.31;6150254;28;103659;-71
2022/08/07 01:32:47;;;;;;;6.70;6.20;;;;;;;26.58;42.52;94836.06;6160453;28;103694;-71
2022/08/07 01:35:50;;;;;;;6.70;6.30;;;;;;;26.60;42.20;94830.34;6161063;28;104218;-71
2022/08/07 01:39:09;;;;;;;6.53;6.03;;;;;;;26.81;42.06;94845.19;6151219;28;103728;-71
2022/08/07 01:42:13;;;;;;;6.93;6.43;;;;;;;26.80;41.81;94819.47;6176191;28;103935;-72
2022/08/07 01:45:38;;;;;;;6.57;6.10;;;;;;;27.20;41.46;94842.00;6184629;28;103519;-70
2022/08/07 01:48:42;;;;;;;7.80;7.30;;;;;;;27.26;40.96;94851.44;6185299;28;103625;-71
2022/08/07 01:51:50;;;;;;;6.97;6.53;;;;;;;27.33;41.68;94863.13;6175179;28;103575;-72
2022/08/07 01:55:11;;;;;;;8.07;7.57;;;;;;;27.51;41.22;94878.94;6183686;28;104759;-73
2022/08/07 01:58:31;;;;;;;7.37;6.87;;;;;;;27.48;40.83;94895.78;6184131;28;103670;-72
2022/08/07 02:01:39;;;;;;;7.30;6.80;;;;;;;27.54;40.82;94923.94;6174040;28;104840;-64
2022/08/07 02:05:07;;;;;;;6.80;6.40;;;;;;;27.24;41.34;94923.50;6183770;28;103511;-64
2022/08/07 02:08:22;;;;;;;7.80;7.00;;;;;;;27.11;42.21;94920.06;6183567;28;104032;-65
2022/08/07 02:11:27;;;;;;;7.63;7.10;;;;;;;27.03;41.73;94927.13;6183581;28;103891;-67
2022/08/07 02:14:56;;;;;;;8.30;7.70;;;;;;;26.89;42.98;94939.41;6173724;28;103837;-69
2022/08/07 02:18:01;;;;;;;8.50;7.90;;;;;;;26.73;44.10;94942.78;6184074;28;103795;-66
2022/08/07 02:21:07;;;;;;;10.60;9.53;;;;;;;26.30;45.81;94943.31;6185194;28;103864;-66
2022/08/07 02:24:21;;;;;;;9.80;9.00;;;;;;;26.28;45.95;94940.97;6173733;28;104862;-66
2022/08/07 02:27:28;;;;;;;9.67;8.90;;;;;;;26.24;46.13;94940.09;6159536;28;103694;-67
2022/08/07 02:30:38;;;;;;;8.70;7.83;;;;;;;25.90;47.67;94937.78;6159960;28;104900;-64
2022/08/07 02:33:42;;;;;;;8.73;8.03;;;;;;;26.24;46.80;94921.31;6158852;28;103784;-64
2022/08/07 02:37:07;;;;;;;9.97;9.17;;;;;;;26.67;45.12;94913.78;6149296;28;103857;-66
2022/08/07 02:40:11;;;;;;;10.13;9.10;;;;;;;26.82;45.66;94895.09;6159603;28;104418;-67
2022/08/07 02:43:39;;;;;;;9.57;8.87;;;;;;;26.96;45.70;94875.91;6175571;28;103363;-64
2022/08/07 02:46:47;;;;;;;8.60;8.00;;;;;;;26.95;45.82;94876.25;6177227;28;104409;-65
2022/08/07 02:49:54;;;;;;;7.97;7.47;;;;;;;27.03;46.08;94880.69;6183520;28;105052;-65
2022/08/07 02:53:08;;;;;;;8.90;8.03;;;;;;;27.06;45.57;94870.06;6183756;28;103646;-66
2022/08/07 02:56:18;;;;;;;8.50;7.80;;;;;;;27.04;45.26;94866.13;6184077;28;103605;-65
2022/08/07 02:59:27;;;;;;;8.10;7.40;;;;;;;26.69;46.19;94855.97;6148122;28;103694;-65
2022/08/07 03:02:31;;;;;;;8.97;7.80;;;;;;;26.46;48.24;94869.06;6164345;28;104779;-69
2022/08/07 03:05:37;;;;;;;8.27;7.60;;;;;;;26.24;48.58;94864.97;6158160;28;103676;-64
2022/08/07 03:08:42;;;;;;;8.07;7.43;;;;;;;26.19;49.13;94864.38;6158544;28;103791;-63
2022/08/07 03:11:46;;;;;;;8.43;7.83;;;;;;;25.88;49.72;94864.94;6172710;28;103668;-65
2022/08/07 03:15:01;;;;;;;8.47;7.87;;;;;;;25.82;49.86;94852.84;6186250;28;103496;-65
2022/08/07 03:18:10;;;;;;;8.00;7.47;;;;;;;25.91;49.50;94850.88;6187257;28;103474;-66
2022/08/07 03:21:21;;;;;;;8.17;7.57;;;;;;;26.08;49.07;94836.47;6176933;28;103632;-64
2022/08/07 03:24:24;;;;;;;8.40;7.70;;;;;;;26.24;48.20;94848.88;6186821;28;103718;-66
2022/08/07 03:27:30;;;;;;;7.77;7.27;;;;;;;26.31;48.21;94845.59;6187688;28;105124;-64
2022/08/07 03:31:17;;;;;;;8.27;7.53;;;;;;;26.67;46.92;94846.69;6168322;28;103357;-64
2022/08/07 03:34:21;;;;;;;8.60;7.33;;;;;;;26.83;46.54;94848.31;6177744;28;103730;-64
2022/08/07 03:37:30;;;;;;;7.37;6.87;;;;;;;27.03;46.09;94851.94;6175810;28;103529;-64
2022/08/07 03:40:35;;;;;;;8.20;7.50;;;;;;;27.07;46.17;94852.84;6162914;28;106645;-65
2022/08/07 03:43:39;;;;;;;8.17;7.67;;;;;;;27.11;45.86;94856.38;6153778;28;103672;-65
2022/08/07 03:47:02;;;;;;;8.63;7.97;;;;;;;27.21;45.75;94857.00;6162490;28;103868;-64
2022/08/07 03:50:18;;;;;;;8.33;7.63;;;;;;;27.24;45.97;94865.19;6179787;28;104004;-66
2022/08/07 03:53:26;;;;;;;7.80;7.30;;;;;;;27.08;46.18;94877.78;6185935;28;102887;-66
2022/08/07 03:56:50;;;;;;;8.00;7.40;;;;;;;26.91;46.37;94865.44;6177735;28;105403;-66
2022/08/07 04:00:10;;;;;;;7.60;7.07;;;;;;;26.84;46.83;94870.56;6185755;28;103702;-64
2022/08/07 04:03:16;;;;;;;7.53;7.00;;;;;;;26.77;46.78;94879.22;6186789;28;103610;-64
2022/08/07 04:06:20;;;;;;;7.40;6.93;;;;;;;26.68;46.85;94869.72;6173092;28;103482;-66
2022/08/07 04:09:41;;;;;;;7.27;6.87;;;;;;;26.69;47.02;94885.50;6160596;28;103769;-66
2022/08/07 04:12:52;;;;;;;8.53;7.67;;;;;;;26.71;47.64;94885.16;6170392;28;103666;-66
2022/08/07 04:15:57;;;;;;;13.60;9.13;;;;;;;26.64;47.18;94891.09;6177834;28;104199;-68
2022/08/07 04:19:04;;;;;;;10.10;9.10;;;;;;;26.66;48.24;94880.81;6176518;28;103854;-67
2022/08/07 04:22:18;;;;;;;13.73;12.60;;;;;;;26.78;47.65;94880.78;6186967;28;106663;-67
2022/08/07 04:25:26;;;;;;;13.93;12.63;;;;;;;27.10;46.76;94897.03;6182521;28;103657;-66
2022/08/07 04:28:31;;;;;;;12.00;10.93;;;;;;;27.18;46.21;94888.03;6169094;28;104890;-68
2022/08/07 04:31:34;;;;;;;11.13;10.23;;;;;;;27.37;45.96;94890.88;6157226;28;106529;-66
2022/08/07 04:35:00;;;;;;;9.70;9.00;;;;;;;27.51;46.10;94895.84;6162843;28;103586;-65
2022/08/07 04:38:07;;;;;;;11.60;9.67;;;;;;;27.65;46.02;94906.22;6173086;28;104063;-64
2022/08/07 04:41:10;;;;;;;10.60;9.70;;;;;;;27.69;46.48;94896.31;6157335;28;103615;-64
2022/08/07 04:44:21;;;;;;;12.30;10.93;;;;;;;27.73;46.71;94900.69;6159008;28;107080;-64
2022/08/07 04:47:35;;;;;;;10.23;9.40;;;;;;;27.69;46.88;94901.69;6167642;28;103535;-65
2022/08/07 04:51:05;;;;;;;9.03;8.33;;;;;;;27.82;46.08;94908.56;6172382;28;103630;-65
2022/08/07 04:54:20;;;;;;;11.53;10.43;;;;;;;27.65;47.08;94909.69;6180745;28;104064;-67
2022/08/07 04:57:40;;;;;;;11.90;9.10;;;;;;;27.59;48.23;94913.75;6173501;28;103871;-68
2022/08/07 05:01:14;;;;;;;17.27;9.17;;;;;;;27.53;47.67;94919.69;6177887;28;103273;-65
2022/08/07 05:04:29;;;;;;;24.40;9.50;;;;;;;27.38;48.27;94915.84;6152051;28;103620;-64
2022/08/07 05:07:40;;;;;;;23.53;9.47;;;;;;;27.06;49.34;94925.69;6168627;28;103962;-69
2022/08/07 05:11:01;;;;;;;18.97;8.67;;;;;;;27.22;48.54;94923.84;6185603;28;103756;-66
2022/08/07 05:14:09;;;;;;;25.93;9.87;;;;;;;27.26;47.97;94932.81;6179731;28;103846;-69
2022/08/07 05:17:34;;;;;;;18.03;9.63;;;;;;;27.27;48.81;94931.69;6168091;28;103726;-64
2022/08/07 05:20:59;;;;;;;18.50;9.60;;;;;;;27.40;48.02;94937.81;6166390;28;103701;-65
2022/08/07 05:24:10;;;;;;;16.93;8.90;;;;;;;27.40;48.20;94943.19;6169219;28;104395;-65
2022/08/07 05:27:15;;;;;;;14.57;8.40;;;;;;;27.54;48.40;94948.16;6163913;28;104613;-65
2022/08/07 05:30:40;;;;;;;9.43;7.70;;;;;;;26.90;46.66;94939.06;6160615;28;103420;-65
2022/08/07 05:33:45;;;;;;;10.67;7.60;;;;;;;26.55;46.83;94941.44;6182037;28;103869;-64
2022/08/07 05:37:06;;;;;;;10.97;8.30;;;;;;;26.34;44.71;94948.78;6164483;28;105312;-65
2022/08/07 05:40:16;;;;;;;9.90;7.93;;;;;;;25.99;45.35;94936.56;6159043;28;103757;-65
2022/08/07 05:43:23;;;;;;;16.77;8.93;;;;;;;25.77;43.43;94949.59;6160295;28;103677;-68
2022/08/07 05:46:49;;;;;;;10.73;8.13;;;;;;;25.75;43.11;94951.81;6160547;28;103535;-65
2022/08/07 05:49:54;;;;;;;13.93;8.53;;;;;;;25.78;42.32;94951.94;6160983;28;103781;-67
2022/08/07 05:52:57;;;;;;;9.07;8.07;;;;;;;25.66;41.79;94959.94;6169968;28;103749;-66
2022/08/07 05:56:05;;;;;;;13.70;8.70;;;;;;;25.72;41.17;94963.22;6184839;28;103641;-68
2022/08/07 05:59:15;;;;;;;16.03;9.30;;;;;;;25.50;42.38;94967.81;6183557;28;104180;-69
2022/08/07 06:02:20;;;;;;;17.63;9.13;;;;;;;25.62;42.44;94969.75;6170415;28;103677;-68
2022/08/07 06:05:31;;;;;;;12.43;8.90;;;;;;;25.48;42.39;94972.72;6163798;28;103746;-69
2022/08/07 06:08:36;;;;;;;11.40;8.70;;;;;;;25.47;42.38;94973.81;6184120;28;103675;-64
2022/08/07 06:11:48;;;;;;;14.07;9.30;;;;;;;25.59;42.39;94973.88;6166504;28;103854;-65
2022/08/07 06:14:52;;;;;;;11.03;8.03;;;;;;;25.68;41.62;94974.56;6168286;28;103961;-69
2022/08/07 06:18:01;;;;;;;11.23;8.10;;;;;;;25.44;42.77;94969.13;6184075;28;103715;-65
2022/08/07 06:21:05;;;;;;;11.87;8.10;;;;;;;25.82;42.04;94968.91;6184643;28;103723;-68
2022/08/07 06:24:29;;;;;;;12.50;8.80;;;;;;;25.91;41.06;94971.50;6174354;28;103441;-68
2022/08/07 06:28:01;;;;;;;10.97;8.10;;;;;;;25.88;42.02;94970.28;6170643;28;103274;-67
2022/08/07 06:31:05;;;;;;;13.90;8.53;;;;;;;25.90;41.92;94957.31;6160963;28;104390;-67
2022/08/07 06:34:08;;;;;;;10.73;8.10;;;;;;;25.81;41.12;94966.56;6167312;28;106033;-67
2022/08/07 06:37:15;;;;;;;9.03;7.40;;;;;;;25.64;41.83;94979.03;6166020;28;103760;-64
2022/08/07 06:40:22;;;;;;;8.70;7.90;;;;;;;25.74;41.32;94979.75;6179991;28;103222;-63
2022/08/07 06:43:34;;;;;;;8.47;7.73;;;;;;;25.97;40.61;94970.97;6180715;28;103797;-64
2022/08/07 06:46:42;;;;;;;9.47;8.10;;;;;;;25.79;40.97;94974.16;6160244;28;103184;-64
2022/08/07 06:49:56;;;;;;;7.30;6.70;;;;;;;25.89;40.91;94974.53;6162088;28;104998;-64
2022/08/07 06:53:01;;;;;;;8.20;7.50;;;;;;;25.96;40.12;94968.63;6188730;28;103908;-64
2022/08/07 06:56:08;;;;;;;7.93;7.13;;;;;;;25.93;39.99;94982.69;6183565;28;103952;-65
2022/08/07 06:59:21;;;;;;;7.67;6.97;;;;;;;26.25;40.75;94978.41;6164606;28;103866;-67
2022/08/07 07:02:45;;;;;;;8.67;7.80;;;;;;;26.95;39.31;94979.09;6168129;28;103348;-71
2022/08/07 07:05:59;;;;;;;8.20;7.50;;;;;;;26.94;38.88;94979.44;6164078;28;104462;-69
2022/08/07 07:09:22;;;;;;;9.20;7.27;;;;;;;27.05;38.75;94975.16;6174794;28;103993;-74
2022/08/07 07:12:37;;;;;;;8.17;7.37;;;;;;;27.21;38.78;94973.31;6178667;28;103953;-69
2022/08/07 07:15:59;;;;;;;9.03;8.13;;;;;;;27.12;39.92;94976.16;6178446;28;103646;-68
2022/08/07 07:19:06;;;;;;;8.23;7.40;;;;;;;26.96;38.10;94963.78;6175318;28;103807;-70
2022/08/07 07:22:30;;;;;;;7.87;7.20;;;;;;;26.98;39.04;94972.25;6172723;28;103316;-70
2022/08/07 07:25:59;;;;;;;8.20;7.57;;;;;;;26.92;38.69;94973.63;6173409;28;103571;-69
2022/08/07 07:29:25;;;;;;;8.97;8.27;;;;;;;26.92;38.93;94965.56;6182310;28;104104;-70
2022/08/07 07:32:52;;;;;;;8.93;8.23;;;;;;;27.17;39.83;94972.44;6160094;28;103462;-69
2022/08/07 07:35:57;;;;;;;9.57;8.30;;;;;;;27.15;40.54;94966.63;6172345;28;103891;-69
2022/08/07 07:39:09;;;;;;;7.73;7.00;;;;;;;27.37;38.94;94968.81;6162961;28;103885;-63
2022/08/07 07:42:15;;;;;;;8.27;7.50;;;;;;;27.46;38.69;94982.91;6154922;28;104128;-68
2022/08/07 07:45:26;;;;;;;12.43;8.10;;;;;;;27.66;38.91;94988.44;6187206;28;103729;-69
2022/08/07 07:48:51;;;;;;;28.33;8.80;;;;;;;27.38;40.20;94989.19;6186552;28;103338;-70
2022/08/07 07:52:12;;;;;;;11.70;7.73;;;;;;;27.23;39.21;94989.91;6185560;28;103701;-68
2022/08/07 07:55:20;;;;;;;8.70;7.80;;;;;;;26.92;39.70;94992.44;6176810;28;105000;-67
2022/08/07 07:58:28;;;;;;;17.00;9.20;;;;;;;26.91;40.10;94985.50;6186581;28;103692;-70
2022/08/07 08:01:33;;;;;;;10.43;9.10;;;;;;;26.86;40.14;94979.22;6184821;28;103657;-72
2022/08/07 08:04:59;;;;;;;11.20;8.00;;;;;;;26.38;38.74;94987.25;6176613;28;103448;-62
2022/08/07 08:08:03;;;;;;;11.93;8.50;;;;;;;25.77;41.52;94984.44;6181220;28;103680;-65
2022/08/07 08:11:08;;;;;;;9.63;8.63;;;;;;;25.54;40.95;94982.13;6162019;28;106897;-68
2022/08/07 08:14:20;;;;;;;13.70;10.10;;;;;;;25.53;41.74;94982.44;6161407;28;103760;-69
2022/08/07 08:17:31;;;;;;;18.20;9.80;;;;;;;25.49;41.28;94978.84;6152841;28;104299;-70
2022/08/07 08:20:58;;;;;;;12.93;9.47;;;;;;;25.21;41.09;94981.28;6161689;28;103346;-70
2022/08/07 08:27:44;;;;;;;10.57;9.70;;;;;;;26.50;43.15;94988.03;6172860;28;103819;-70
2022/08/07 08:31:03;;;;;;;10.70;9.90;;;;;;;26.77;41.97;94981.25;6186885;28;103454;-69
2022/08/07 08:34:09;;;;;;;11.03;10.03;;;;;;;26.87;42.90;94980.78;6182679;28;103731;-71
2022/08/07 08:37:28;;;;;;;10.87;9.97;;;;;;;27.05;43.43;94989.38;6186084;28;103682;-70
2022/08/07 08:40:56;;;;;;;11.60;10.60;;;;;;;27.22;43.73;94996.41;6179719;28;103349;-70
2022/08/07 08:44:04;;;;;;;11.43;10.53;;;;;;;27.62;42.91;94998.31;6181773;28;103933;-69
2022/08/07 08:47:18;;;;;;;11.03;10.13;;;;;;;27.84;42.20;95005.03;6172158;28;104682;-72
2022/08/07 08:50:27;;;;;;;11.07;9.97;;;;;;;27.98;41.57;95006.25;6166797;28;106855;-71
2022/08/07 08:53:49;;;;;;;10.70;9.77;;;;;;;28.19;42.21;95002.53;6176854;28;103850;-71
2022/08/07 08:56:54;;;;;;;10.63;9.73;;;;;;;28.35;42.41;94989.84;6175969;28;104295;-70
2022/08/07 09:00:03;;;;;;;11.00;10.00;;;;;;;28.57;41.20;94996.59;6170508;28;103668;-71
2022/08/07 09:03:18;;;;;;;11.60;10.67;;;;;;;28.61;41.08;94989.38;6158230;28;104019;-71
2022/08/07 09:06:35;;;;;;;11.27;10.13;;;;;;;28.55;41.40;94986.16;6172674;28;105837;-70
2022/08/07 09:10:00;;;;;;;11.53;10.43;;;;;;;28.55;40.92;94985.38;6162576;28;104002;-70
2022/08/07 09:13:19;;;;;;;10.60;9.80;;;;;;;28.61;40.64;94989.38;6160247;28;103828;-70
2022/08/07 09:16:57;;;;;;;11.10;10.10;;;;;;;28.74;40.90;94987.38;6180083;28;104192;-71
2022/08/07 09:20:12;;;;;;;9.63;8.83;;;;;;;28.57;40.59;94983.91;6183020;28;103412;-71
2022/08/07 09:23:53;;;;;;;10.00;9.30;;;;;;;28.57;39.89;94956.97;6180202;28;103568;-71
2022/08/07 09:27:28;;;;;;;10.37;9.57;;;;;;;28.73;40.18;94975.81;6180260;28;103718;-72
2022/08/07 09:30:45;;;;;;;10.40;9.60;;;;;;;28.87;40.17;94973.41;6183252;28;103658;-72
2022/08/07 09:34:31;;;;;;;12.57;11.67;;;;;;;28.98;40.13;94962.88;6160520;28;106618;-72
2022/08/07 09:37:40;;;;;;;10.93;10.13;;;;;;;29.06;40.45;94956.53;6171759;28;103842;-70
2022/08/07 09:41:07;;;;;;;10.10;9.27;;;;;;;29.12;40.80;94965.13;6175869;28;103678;-72
2022/08/07 09:44:26;;;;;;;11.07;9.93;;;;;;;29.10;40.94;94957.41;6184007;28;104330;-73
2022/08/07 09:48:06;;;;;;;10.47;9.57;;;;;;;29.07;40.49;94936.56;6156090;28;103576;-73
2022/08/07 09:51:31;;;;;;;10.50;9.70;;;;;;;28.98;39.16;94945.94;6173966;28;103681;-66
2022/08/07 09:54:59;;;;;;;10.90;9.70;;;;;;;29.05;40.89;94954.97;6167792;28;103800;-69
2022/08/07 09:58:39;;;;;;;10.70;9.57;;;;;;;29.21;40.97;94947.59;6176281;28;105579;-71
2022/08/07 10:02:02;;;;;;;10.03;9.10;;;;;;;29.21;40.18;94952.22;6148853;28;104120;-72
2022/08/07 10:05:42;;;;;;;10.43;9.50;;;;;;;29.15;40.01;94948.25;6160059;28;103740;-69
2022/08/07 10:09:45;;;;;;;9.67;8.90;;;;;;;29.22;40.09;94948.38;6176074;28;103584;-71
2022/08/07 10:13:30;;;;;;;10.70;9.80;;;;;;;29.34;39.74;94939.38;6179784;28;105770;-70
2022/08/07 10:17:19;;;;;;;9.63;8.73;;;;;;;29.41;40.28;94934.16;6178464;28;103333;-71
2022/08/07 10:20:32;;;;;;;11.00;9.90;;;;;;;29.06;42.52;94934.19;6159614;28;103860;-71
2022/08/07 10:23:49;;;;;;;10.40;9.50;;;;;;;28.69;41.11;94931.06;6168734;28;104213;-70
2022/08/07 10:27:20;;;;;;;10.60;9.67;;;;;;;28.25;40.83;94923.91;6188290;28;103621;-69
2022/08/07 10:30:32;;;;;;;10.17;9.13;;;;;;;27.93;39.89;94925.78;6188967;28;103447;-72
2022/08/07 10:33:49;;;;;;;10.50;9.60;;;;;;;27.70;38.76;94925.53;6177647;28;103663;-72
2022/08/07 10:37:27;;;;;;;10.93;10.03;;;;;;;27.41;38.34;94940.16;6163895;28;103514;-72
2022/08/07 10:41:01;;;;;;;11.10;10.10;;;;;;;27.17;37.72;94945.56;6164232;28;103331;-70
2022/08/07 10:44:16;;;;;;;10.50;9.70;;;;;;;26.89;36.88;94939.41;6176965;28;103685;-73
2022/08/07 10:47:40;;;;;;;11.97;10.87;;;;;;;26.59;37.21;94942.31;6169332;28;103910;-72
2022/08/07 10:51:03;;;;;;;14.00;12.90;;;;;;;26.43;37.37;94947.56;6169122;28;104286;-72
2022/08/07 10:54:15;;;;;;;12.27;11.00;;;;;;;26.83;36.94;94941.50;6172634;28;103697;-75
2022/08/07 10:57:26;;;;;;;12.33;10.90;;;;;;;26.84;37.27;94941.19;6159317;28;103669;-74
2022/08/07 11:00:45;;;;;;;14.60;10.97;;;;;;;26.58;37.83;94935.38;6165663;28;103739;-75
2022/08/07 11:04:07;;;;;;;17.03;11.17;;;;;;;26.67;39.01;94940.63;6171483;28;104463;-75
2022/08/07 11:07:37;;;;;;;11.63;10.43;;;;;;;26.47;38.34;94929.69;6165853;28;103701;-71
2022/08/07 11:11:06;;;;;;;11.70;10.70;;;;;;;26.34;37.84;94940.75;6179274;28;103462;-73
2022/08/07 11:14:17;;;;;;;11.70;10.27;;;;;;;26.19;36.85;94940.28;6176613;28;103544;-75
2022/08/07 11:17:46;;;;;;;11.90;10.37;;;;;;;26.20;36.46;94947.22;6177012;28;103536;-74
2022/08/07 11:20:59;;;;;;;10.97;9.90;;;;;;;26.12;36.75;94934.69;6188092;28;104042;-73
2022/08/07 11:24:12;;;;;;;11.73;10.13;;;;;;;26.11;36.68;94925.09;6179446;28;103620;-72
2022/08/07 11:27:23;;;;;;;11.63;10.43;;;;;;;26.06;36.82;94930.69;6162931;28;103748;-72
2022/08/07 11:30:53;;;;;;;11.03;10.03;;;;;;;25.77;37.12;94917.41;6153121;28;103439;-71
2022/08/07 11:34:05;;;;;;;10.17;9.27;;;;;;;25.64;37.75;94935.34;6178152;28;103752;-70
2022/08/07 11:37:24;;;;;;;10.97;9.83;;;;;;;25.58;37.94;94929.44;6166931;28;103847;-72
2022/08/07 11:40:56;;;;;;;10.53;9.47;;;;;;;25.35;38.32;94928.22;6153318;28;103205;-72
2022/08/07 11:44:09;;;;;;;10.00;9.20;;;;;;;25.23;38.19;94925.47;6164722;28;103850;-71
2022/08/07 11:47:34;;;;;;;10.03;9.03;;;;;;;26.21;37.74;94921.16;6164352;28;103699;-70
2022/08/07 11:51:09;;;;;;;10.20;9.20;;;;;;;26.56;37.56;94932.25;6162587;28;103436;-71
2022/08/07 11:54:46;;;;;;;9.80;8.90;;;;;;;27.04;37.25;94941.34;6161320;28;104757;-72
2022/08/07 11:58:08;;;;;;;9.50;8.60;;;;;;;27.40;37.23;94932.44;6178948;28;104087;-72
2022/08/07 12:01:35;;;;;;;10.50;9.57;;;;;;;27.69;36.41;94940.13;6190659;28;103700;-71
2022/08/07 12:05:07;;;;;;;8.97;8.27;;;;;;;27.91;36.42;94941.50;6180718;28;103644;-73
2022/08/07 12:08:34;;;;;;;8.97;8.17;;;;;;;28.05;37.09;94938.38;6210217;28;103177;-71
2022/08/07 12:11:45;;;;;;;8.97;8.27;;;;;;;28.17;36.77;94940.19;6212245;28;103699;-72
2022/08/07 12:15:15;;;;;;;9.27;8.57;;;;;;;28.27;36.53;94947.75;6203110;28;103026;-71
2022/08/07 12:18:46;;;;;;;9.70;9.00;;;;;;;28.35;36.67;94936.03;6199515;28;102591;-73
2022/08/07 12:22:02;;;;;;;8.63;8.03;;;;;;;28.41;37.67;94921.19;6187050;28;103107;-71
2022/08/07 12:29:20;;;;;;;8.47;7.87;;;;;;;28.55;37.82;94918.03;6213389;27;102392;-71
2022/08/07 12:32:50;;;;;;;8.87;8.10;;;;;;;28.60;38.03;94912.41;6213297;28;102498;-72
2022/08/07 12:35:55;;;;;;;8.50;7.90;;;;;;;28.63;37.95;94904.41;6195400;28;102742;-71
2022/08/07 12:39:03;;;;;;;8.17;7.53;;;;;;;28.65;37.84;94894.06;6175505;28;103726;-70
2022/08/07 12:42:28;;;;;;;7.87;7.27;;;;;;;28.58;38.02;94910.06;6187207;28;103803;-70
2022/08/07 12:45:41;;;;;;;8.20;7.60;;;;;;;28.44;39.01;94904.34;6188786;28;103533;-71
2022/08/07 12:48:57;;;;;;;8.40;7.67;;;;;;;28.34;39.23;94904.84;6178452;28;103551;-71
2022/08/07 12:52:13;;;;;;;7.67;7.10;;;;;;;28.27;39.52;94899.31;6187683;28;103910;-70
2022/08/07 12:55:24;;;;;;;7.60;7.00;;;;;;;28.24;39.86;94902.72;6188751;28;106002;-70
2022/08/07 12:58:48;;;;;;;7.47;6.97;;;;;;;28.17;40.68;94897.94;6187332;28;107613;-71
2022/08/07 13:02:12;;;;;;;7.97;7.27;;;;;;;28.14;41.18;94897.84;6180092;28;104743;-72
2022/08/07 13:05:34;;;;;;;8.17;7.50;;;;;;;28.15;40.41;94894.03;6187833;28;103786;-72
2022/08/07 13:09:07;;;;;;;7.67;7.07;;;;;;;28.32;40.72;94907.13;6182895;28;103717;-72
2022/08/07 13:12:37;;;;;;;7.53;6.90;;;;;;;28.49;40.49;94904.09;6152588;28;103581;-71
2022/08/07 13:15:51;;;;;;;8.50;7.70;;;;;;;28.59;40.23;94895.47;6161899;28;103653;-72
2022/08/07 13:19:15;;;;;;;7.87;7.30;;;;;;;28.69;40.59;94893.34;6185516;28;103837;-73
2022/08/07 13:22:45;;;;;;;8.30;7.60;;;;;;;28.65;41.26;94888.69;6152000;28;103778;-72
2022/08/07 13:26:02;;;;;;;7.23;6.63;;;;;;;28.39;43.74;94884.97;6160906;28;103639;-71
2022/08/07 13:29:12;;;;;;;8.00;7.40;;;;;;;27.83;42.41;94880.53;6168175;28;103650;-68
2022/08/07 13:32:20;;;;;;;8.43;7.73;;;;;;;27.09;40.35;94876.66;6178668;28;103988;-73
2022/08/07 13:35:40;;;;;;;6.23;5.73;;;;;;;26.46;38.36;94873.66;6173774;28;104195;-74
2022/08/07 13:39:08;;;;;;;7.73;6.73;;;;;;;26.05;37.02;94870.13;6163405;28;103798;-73
2022/08/07 13:42:32;;;;;;;7.27;6.77;;;;;;;25.80;36.11;94873.84;6180526;28;103714;-72
2022/08/07 13:45:47;;;;;;;6.50;6.00;;;;;;;25.77;35.26;94871.84;6161701;28;103767;-73
2022/08/07 13:49:13;;;;;;;7.13;6.60;;;;;;;25.51;34.75;94872.13;6174134;28;103408;-71
2022/08/07 13:52:43;;;;;;;6.13;5.63;;;;;;;25.23;34.65;94874.59;6179321;28;103560;-72
2022/08/07 13:55:52;;;;;;;6.27;5.77;;;;;;;24.95;34.60;94875.16;6182072;28;103727;-72
2022/08/07 13:59:02;;;;;;;6.97;6.27;;;;;;;24.87;37.08;94888.63;6174872;28;103859;-72
2022/08/07 14:02:11;;;;;;;7.63;7.03;;;;;;;24.75;37.40;94894.69;6183018;28;106532;-72
2022/08/07 14:05:20;;;;;;;7.73;7.03;;;;;;;24.65;36.78;94905.72;6181976;28;104479;-71
2022/08/07 14:08:25;;;;;;;7.80;7.00;;;;;;;25.75;38.00;94915.06;6170298;28;106533;-71
2022/08/07 14:11:36;;;;;;;8.93;8.20;;;;;;;26.28;38.32;94906.09;6169702;28;104128;-72
2022/08/07 14:15:03;;;;;;;8.23;7.43;;;;;;;26.84;39.53;94914.31;6170386;28;103746;-71
2022/08/07 14:18:09;;;;;;;9.00;7.40;;;;;;;27.23;40.18;94922.72;6179614;28;103838;-71
2022/08/07 14:21:35;;;;;;;7.77;7.17;;;;;;;27.55;40.18;94920.13;6159084;28;106258;-73
2022/08/07 14:25:02;;;;;;;8.43;7.50;;;;;;;27.79;40.46;94917.34;6182157;28;103887;-73
2022/08/07 14:28:11;;;;;;;8.47;7.73;;;;;;;27.96;40.46;94921.63;6179463;28;103739;-72
2022/08/07 14:31:16;;;;;;;8.10;7.60;;;;;;;28.08;40.89;94915.41;6171179;28;103488;-72
2022/08/07 14:34:24;;;;;;;8.10;7.50;;;;;;;28.18;40.87;94914.84;6171241;28;103604;-71
2022/08/07 14:37:32;;;;;;;9.20;8.50;;;;;;;28.28;40.71;94914.34;6169674;28;103710;-73
2022/08/07 14:40:43;;;;;;;9.33;8.63;;;;;;;28.33;41.28;94911.38;6175610;28;103713;-71
2022/08/07 14:43:55;;;;;;;9.33;8.63;;;;;;;28.39;41.33;94912.66;6152730;28;103724;-71
2022/08/07 14:47:16;;;;;;;8.57;7.97;;;;;;;28.32;41.20;94902.53;6180529;28;104359;-73
2022/08/07 14:50:22;;;;;;;9.90;9.00;;;;;;;28.17;41.79;94905.22;6183178;28;103579;-71
2022/08/07 14:53:32;;;;;;;9.17;8.40;;;;;;;28.04;41.96;94902.59;6155051;28;106408;-72
2022/08/07 14:56:57;;;;;;;8.83;8.23;;;;;;;27.96;41.98;94902.81;6160009;28;103351;-71
2022/08/07 15:00:08;;;;;;;8.70;8.00;;;;;;;27.90;42.67;94894.22;6173572;28;103791;-72
2022/08/07 15:03:12;;;;;;;8.83;8.13;;;;;;;27.91;43.26;94893.09;6180783;28;106287;-72
2022/08/07 15:06:38;;;;;;;8.13;7.43;;;;;;;27.91;43.10;94895.78;6148908;28;103501;-71
2022/08/07 15:09:52;;;;;;;9.30;8.53;;;;;;;27.89;42.91;94899.91;6166475;28;103344;-72
2022/08/07 15:13:15;;;;;;;8.80;8.20;;;;;;;27.96;42.85;94902.81;6180165;28;103708;-72